Time;durP1;ratioP1;P1;durP2;ratioP2;P2;SDS_P1;SDS_P2;PMS_P1;PMS_P2;Temp;Humidity;BMP_temperature;BMP_pressure;BME280_temperature;BME280_humidity;BME280_pressure;Samples;Min_cycle;Max_cycle;Signal;HPM_P1;HPM_P2
2023/06/11 00:01:41;;;;;;;;;10.00;10.00;;;;;;;;5046505;28;8796;-84
2023/06/11 00:04:08;;;;;;;;;9.00;9.00;;;;;;;;5048347;28;8850;-83
2023/06/11 00:06:36;;;;;;;;;12.00;12.00;;;;;;;;5035410;28;8891;-83
2023/06/11 00:09:05;;;;;;;;;14.50;12.50;;;;;;;;5045606;28;8847;-83
2023/06/11 00:11:32;;;;;;;;;10.00;10.00;;;;;;;;5047365;28;8966;-83
2023/06/11 00:13:59;;;;;;;;;11.25;11.25;;;;;;;;5047690;28;8944;-82
2023/06/11 00:16:33;;;;;;;;;9.00;9.00;;;;;;;;5048220;28;8960;-83
2023/06/11 00:19:00;;;;;;;;;9.75;9.75;;;;;;;;5047752;28;8902;-83
2023/06/11 00:21:28;;;;;;;;;10.75;10.00;;;;;;;;5047243;28;8847;-82
2023/06/11 00:23:56;;;;;;;;;11.25;11.25;;;;;;;;5045678;28;8954;-82
2023/06/11 00:26:28;;;;;;;;;11.00;10.50;;;;;;;;5048158;28;8839;-82
2023/06/11 00:28:55;;;;;;;;;11.00;11.00;;;;;;;;5047299;28;8856;-83
2023/06/11 00:31:23;;;;;;;;;11.25;11.25;;;;;;;;5044945;28;8815;-83
2023/06/11 00:33:50;;;;;;;;;10.25;10.00;;;;;;;;5047290;28;8875;-83
2023/06/11 00:36:17;;;;;;;;;11.50;11.50;;;;;;;;5048209;28;8847;-82
2023/06/11 00:38:46;;;;;;;;;10.50;10.50;;;;;;;;5047636;28;8861;-83
2023/06/11 00:41:13;;;;;;;;;14.25;11.50;;;;;;;;5045431;28;8871;-82
2023/06/11 00:43:41;;;;;;;;;10.75;10.75;;;;;;;;5047539;28;8863;-83
2023/06/11 00:46:10;;;;;;;;;11.50;11.50;;;;;;;;5048280;28;8866;-82
2023/06/11 00:48:39;;;;;;;;;11.25;11.25;;;;;;;;5051011;28;8982;-82
2023/06/11 00:51:06;;;;;;;;;11.60;10.80;;;;;;;;5047279;28;8854;-83
2023/06/11 00:53:33;;;;;;;;;10.50;10.50;;;;;;;;5051815;28;8859;-83
2023/06/11 00:56:01;;;;;;;;;12.50;12.50;;;;;;;;5050397;28;8867;-82
2023/06/11 00:58:29;;;;;;;;;11.25;11.25;;;;;;;;5044904;28;8855;-82
2023/06/11 01:01:00;;;;;;;;;13.50;11.75;;;;;;;;5050856;28;8778;-82
2023/06/11 01:03:33;;;;;;;;;11.75;11.50;;;;;;;;5052133;28;8843;-82
2023/06/11 01:06:05;;;;;;;;;12.00;10.50;;;;;;;;5043205;28;8865;-82
2023/06/11 01:08:38;;;;;;;;;12.00;11.75;;;;;;;;5049811;28;8847;-82
2023/06/11 01:11:08;;;;;;;;;10.00;9.00;;;;;;;;5047653;28;8863;-82
2023/06/11 01:13:37;;;;;;;;;13.75;12.50;;;;;;;;5048965;28;8843;-83
2023/06/11 01:16:10;;;;;;;;;13.00;12.00;;;;;;;;5045170;28;8865;-82
2023/06/11 01:18:46;;;;;;;;;11.50;11.50;;;;;;;;5050536;28;8867;-82
2023/06/11 01:21:17;;;;;;;;;14.00;14.00;;;;;;;;5050594;28;8867;-83
2023/06/11 01:23:53;;;;;;;;;17.50;16.50;;;;;;;;5032909;28;8910;-82
2023/06/11 01:26:35;;;;;;;;;13.25;12.00;;;;;;;;5049988;28;9676;-81
2023/06/11 01:29:06;;;;;;;;;13.00;12.75;;;;;;;;5050112;28;8973;-83
2023/06/11 01:31:37;;;;;;;;;12.00;12.00;;;;;;;;5041167;28;8790;-83
2023/06/11 01:34:05;;;;;;;;;11.50;11.50;;;;;;;;5047232;28;8915;-83
2023/06/11 01:36:34;;;;;;;;;11.60;11.00;;;;;;;;5050046;28;8859;-83
2023/06/11 01:39:01;;;;;;;;;14.00;14.00;;;;;;;;5049618;28;8887;-83
2023/06/11 01:41:30;;;;;;;;;11.75;11.75;;;;;;;;5050101;28;8859;-82
2023/06/11 01:43:57;;;;;;;;;9.40;9.40;;;;;;;;5049377;28;8965;-83
2023/06/11 01:46:26;;;;;;;;;13.60;11.80;;;;;;;;5050530;28;8873;-83
2023/06/11 01:48:56;;;;;;;;;12.60;10.60;;;;;;;;5049996;28;8879;-84
2023/06/11 01:51:23;;;;;;;;;12.75;12.75;;;;;;;;5049760;28;8839;-82
2023/06/11 01:53:51;;;;;;;;;11.00;10.00;;;;;;;;5044935;28;8836;-84
2023/06/11 01:56:18;;;;;;;;;12.20;9.80;;;;;;;;5049291;28;9665;-84
2023/06/11 01:58:47;;;;;;;;;10.20;10.20;;;;;;;;5047887;28;8977;-83
2023/06/11 02:01:14;;;;;;;;;12.25;12.25;;;;;;;;5051090;28;8914;-84
2023/06/11 02:03:43;;;;;;;;;10.50;10.50;;;;;;;;5051945;28;8985;-84
2023/06/11 02:06:10;;;;;;;;;12.50;12.50;;;;;;;;5036700;28;8876;-82
2023/06/11 02:08:37;;;;;;;;;10.00;10.00;;;;;;;;5048542;28;8916;-83
2023/06/11 02:11:05;;;;;;;;;8.60;8.60;;;;;;;;5049128;28;9012;-83
2023/06/11 02:13:32;;;;;;;;;10.20;10.20;;;;;;;;5036659;28;8905;-82
2023/06/11 02:15:59;;;;;;;;;10.20;10.20;;;;;;;;5044160;28;8841;-82
2023/06/11 02:18:26;;;;;;;;;9.60;9.60;;;;;;;;5049703;28;8978;-83
2023/06/11 02:20:55;;;;;;;;;10.40;10.40;;;;;;;;5049280;28;8977;-83
2023/06/11 02:23:22;;;;;;;;;10.60;9.60;;;;;;;;5040486;28;8882;-82
2023/06/11 02:25:50;;;;;;;;;11.75;11.75;;;;;;;;5045825;28;8869;-82
2023/06/11 02:28:17;;;;;;;;;12.25;12.25;;;;;;;;5049753;28;8869;-82
2023/06/11 02:30:45;;;;;;;;;12.00;12.00;;;;;;;;5045212;28;8810;-82
2023/06/11 02:33:12;;;;;;;;;13.75;13.75;;;;;;;;5051205;28;9780;-80
2023/06/11 02:35:39;;;;;;;;;11.25;11.25;;;;;;;;5047251;28;8873;-82
2023/06/11 02:38:08;;;;;;;;;9.00;9.00;;;;;;;;5051393;28;8989;-83
2023/06/11 02:40:35;;;;;;;;;13.50;13.50;;;;;;;;5041765;28;8866;-82
2023/06/11 02:43:02;;;;;;;;;16.25;14.50;;;;;;;;5052082;28;8884;-82
2023/06/11 02:45:30;;;;;;;;;15.75;15.75;;;;;;;;5052284;28;8862;-83
2023/06/11 02:47:57;;;;;;;;;14.75;14.75;;;;;;;;5044934;28;8851;-83
2023/06/11 02:50:24;;;;;;;;;16.50;16.50;;;;;;;;5049158;28;8958;-82
2023/06/11 02:52:53;;;;;;;;;16.00;16.00;;;;;;;;5048538;28;8855;-83
2023/06/11 02:55:22;;;;;;;;;9.00;9.00;;;;;;;;5035823;28;8863;-84
2023/06/11 02:57:55;;;;;;;;;15.75;15.00;;;;;;;;5048801;28;8901;-82
2023/06/11 03:00:25;;;;;;;;;17.00;15.25;;;;;;;;5048019;28;8883;-82
2023/06/11 03:02:52;;;;;;;;;17.50;16.50;;;;;;;;5048364;28;8863;-84
2023/06/11 03:05:20;;;;;;;;;15.00;15.00;;;;;;;;5042540;28;8911;-83
2023/06/11 03:07:48;;;;;;;;;12.25;12.25;;;;;;;;5042344;28;8937;-84
2023/06/11 03:10:15;;;;;;;;;16.00;16.00;;;;;;;;5046467;28;8861;-83
2023/06/11 03:12:44;;;;;;;;;15.25;15.25;;;;;;;;5048302;28;8847;-83
2023/06/11 03:15:11;;;;;;;;;18.75;17.50;;;;;;;;5048459;28;8867;-84
2023/06/11 03:17:38;;;;;;;;;16.00;14.25;;;;;;;;5048041;28;9005;-82
2023/06/11 03:20:08;;;;;;;;;15.50;15.50;;;;;;;;5048690;28;8839;-83
2023/06/11 03:22:35;;;;;;;;;15.00;15.00;;;;;;;;5047796;28;8912;-83
2023/06/11 03:25:02;;;;;;;;;15.80;13.80;;;;;;;;5048533;28;8859;-83
2023/06/11 03:27:29;;;;;;;;;16.00;16.00;;;;;;;;5047019;28;8861;-83
2023/06/11 03:30:01;;;;;;;;;18.40;16.40;;;;;;;;5048841;28;8847;-84
2023/06/11 03:32:28;;;;;;;;;14.60;12.80;;;;;;;;5046468;28;8834;-84
2023/06/11 03:34:58;;;;;;;;;14.00;13.60;;;;;;;;5048775;28;8867;-83
2023/06/11 03:37:25;;;;;;;;;15.75;15.75;;;;;;;;5046113;28;8834;-84
2023/06/11 03:39:55;;;;;;;;;17.40;17.40;;;;;;;;5048555;28;8859;-83
2023/06/11 03:42:25;;;;;;;;;16.60;13.80;;;;;;;;5049243;28;8868;-83
2023/06/11 03:44:55;;;;;;;;;17.00;17.00;;;;;;;;5050528;28;8905;-82
2023/06/11 03:47:24;;;;;;;;;16.50;16.50;;;;;;;;5047899;28;8881;-82
2023/06/11 03:49:52;;;;;;;;;17.00;17.00;;;;;;;;5048473;28;8887;-84
2023/06/11 03:52:19;;;;;;;;;15.50;15.50;;;;;;;;5044808;28;8831;-83
2023/06/11 03:54:47;;;;;;;;;15.00;15.00;;;;;;;;5047690;28;8862;-83
2023/06/11 03:57:18;;;;;;;;;18.75;18.75;;;;;;;;5047722;28;8863;-81
2023/06/11 03:59:46;;;;;;;;;15.20;15.20;;;;;;;;5047460;28;8863;-82
2023/06/11 04:02:13;;;;;;;;;16.40;16.40;;;;;;;;5047147;28;8803;-82
2023/06/11 04:04:42;;;;;;;;;14.00;12.00;;;;;;;;5045451;28;8932;-82
2023/06/11 04:07:09;;;;;;;;;20.20;15.60;;;;;;;;5047995;28;8952;-82
2023/06/11 04:09:36;;;;;;;;;15.20;15.20;;;;;;;;5048359;28;8851;-83
2023/06/11 04:12:05;;;;;;;;;17.20;16.60;;;;;;;;5049503;28;8860;-82
2023/06/11 04:14:32;;;;;;;;;18.80;18.80;;;;;;;;5049417;28;8882;-82
2023/06/11 04:17:02;;;;;;;;;16.20;14.40;;;;;;;;5052469;28;8851;-80
2023/06/11 04:19:32;;;;;;;;;16.80;16.80;;;;;;;;5051092;28;8848;-82
2023/06/11 04:22:03;;;;;;;;;13.00;13.00;;;;;;;;5052968;28;8885;-82
2023/06/11 04:24:31;;;;;;;;;16.20;16.20;;;;;;;;5048267;28;9632;-83
2023/06/11 04:26:58;;;;;;;;;18.00;18.00;;;;;;;;5048821;28;8877;-83
2023/06/11 04:29:29;;;;;;;;;17.60;16.20;;;;;;;;5036173;28;8866;-84
2023/06/11 04:32:01;;;;;;;;;16.40;16.40;;;;;;;;5050403;28;8816;-84
2023/06/11 04:34:29;;;;;;;;;16.40;16.40;;;;;;;;5050602;28;8871;-83
2023/06/11 04:36:56;;;;;;;;;18.40;18.40;;;;;;;;5046147;28;8951;-84
2023/06/11 04:39:32;;;;;;;;;20.00;20.00;;;;;;;;5043946;28;8867;-82
2023/06/11 04:42:05;;;;;;;;;18.75;18.00;;;;;;;;5038918;28;8866;-83
2023/06/11 04:44:33;;;;;;;;;21.50;21.50;;;;;;;;5049812;28;8866;-82
2023/06/11 04:47:00;;;;;;;;;21.25;21.25;;;;;;;;5046021;28;8847;-82
2023/06/11 04:49:28;;;;;;;;;20.40;19.60;;;;;;;;5049010;28;8983;-82
2023/06/11 04:51:58;;;;;;;;;20.80;17.80;;;;;;;;5046840;28;8859;-84
2023/06/11 04:54:27;;;;;;;;;22.25;21.50;;;;;;;;5046217;28;8940;-83
2023/06/11 04:56:54;;;;;;;;;21.20;19.40;;;;;;;;5051146;28;8847;-81
2023/06/11 04:59:30;;;;;;;;;20.60;18.00;;;;;;;;5042288;28;8837;-83
2023/06/11 05:01:58;;;;;;;;;21.00;20.80;;;;;;;;5042539;28;8780;-84
2023/06/11 05:04:25;;;;;;;;;22.60;21.40;;;;;;;;5044824;28;9683;-84
2023/06/11 05:06:54;;;;;;;;;21.40;19.60;;;;;;;;5036646;28;8847;-83
2023/06/11 05:09:23;;;;;;;;;21.60;21.60;;;;;;;;5050712;28;8847;-84
2023/06/11 05:11:52;;;;;;;;;21.50;21.50;;;;;;;;5049694;28;9735;-85
2023/06/11 05:14:19;;;;;;;;;16.20;16.20;;;;;;;;5050220;28;9629;-84
2023/06/11 05:16:50;;;;;;;;;16.40;16.20;;;;;;;;5049330;28;8877;-84
2023/06/11 05:19:20;;;;;;;;;13.80;13.80;;;;;;;;5047518;28;8863;-84
2023/06/11 05:21:47;;;;;;;;;18.40;16.80;;;;;;;;5048955;28;8991;-85
2023/06/11 05:24:19;;;;;;;;;19.00;17.80;;;;;;;;5048587;28;8858;-84
2023/06/11 05:26:54;;;;;;;;;14.40;14.40;;;;;;;;5049987;28;8875;-84
2023/06/11 05:29:21;;;;;;;;;19.75;19.75;;;;;;;;5049248;28;8978;-83
2023/06/11 05:31:49;;;;;;;;;22.25;21.75;;;;;;;;5049376;28;8787;-83
2023/06/11 05:34:16;;;;;;;;;23.00;21.25;;;;;;;;5049530;28;8986;-83
2023/06/11 05:36:45;;;;;;;;;19.60;19.60;;;;;;;;5049859;28;8901;-83
2023/06/11 05:39:13;;;;;;;;;18.20;18.20;;;;;;;;5048839;28;8873;-83
2023/06/11 05:41:41;;;;;;;;;17.40;17.40;;;;;;;;5050026;28;8878;-83
2023/06/11 05:44:09;;;;;;;;;19.80;19.80;;;;;;;;5049587;28;8989;-84
2023/06/11 05:46:37;;;;;;;;;20.25;18.50;;;;;;;;5048901;28;8944;-83
2023/06/11 05:49:06;;;;;;;;;20.20;17.80;;;;;;;;5050342;28;8879;-83
2023/06/11 05:51:33;;;;;;;;;16.40;15.60;;;;;;;;5050294;28;8863;-83
2023/06/11 05:54:03;;;;;;;;;19.20;18.00;;;;;;;;5051408;28;8875;-82
2023/06/11 05:56:30;;;;;;;;;19.00;17.25;;;;;;;;5051594;28;8929;-82
2023/06/11 05:59:00;;;;;;;;;17.20;17.00;;;;;;;;5051928;28;8901;-83
2023/06/11 06:01:33;;;;;;;;;21.75;20.00;;;;;;;;5048506;28;8930;-83
2023/06/11 06:04:00;;;;;;;;;18.40;16.80;;;;;;;;5038323;28;8874;-84
2023/06/11 06:06:29;;;;;;;;;19.60;19.60;;;;;;;;5035759;28;8857;-83
2023/06/11 06:09:02;;;;;;;;;17.20;17.20;;;;;;;;5049515;28;9001;-83
2023/06/11 06:11:31;;;;;;;;;19.00;19.00;;;;;;;;5048494;28;8862;-82
2023/06/11 06:13:58;;;;;;;;;15.40;14.60;;;;;;;;5049283;28;8909;-83
2023/06/11 06:16:26;;;;;;;;;18.80;17.00;;;;;;;;5046260;28;8948;-83
2023/06/11 06:18:57;;;;;;;;;18.00;18.00;;;;;;;;5047253;28;8859;-83
2023/06/11 06:21:24;;;;;;;;;20.80;20.80;;;;;;;;5047115;28;8894;-84
2023/06/11 06:23:52;;;;;;;;;21.00;21.00;;;;;;;;5048696;28;8867;-83
2023/06/11 06:26:23;;;;;;;;;20.80;20.80;;;;;;;;5048800;28;8844;-83
2023/06/11 06:28:52;;;;;;;;;22.80;21.40;;;;;;;;5047156;28;9656;-83
2023/06/11 06:31:20;;;;;;;;;18.80;18.60;;;;;;;;5037310;28;8787;-83
2023/06/11 06:33:49;;;;;;;;;19.40;19.40;;;;;;;;5047325;28;8909;-83
2023/06/11 06:36:20;;;;;;;;;16.40;15.20;;;;;;;;5048706;28;8855;-82
2023/06/11 06:38:47;;;;;;;;;21.60;20.80;;;;;;;;5047430;28;8846;-82
2023/06/11 06:41:16;;;;;;;;;21.80;19.00;;;;;;;;5048243;28;8889;-81
2023/06/11 06:43:43;;;;;;;;;19.40;19.40;;;;;;;;5048556;28;8925;-82
2023/06/11 06:46:10;;;;;;;;;18.00;18.00;;;;;;;;5048828;28;8863;-83
2023/06/11 06:48:37;;;;;;;;;20.80;19.20;;;;;;;;5047797;28;8985;-82
2023/06/11 06:51:06;;;;;;;;;20.20;20.20;;;;;;;;5048832;28;8873;-84
2023/06/11 06:53:35;;;;;;;;;22.40;20.00;;;;;;;;5047424;28;9313;-82
2023/06/11 06:56:05;;;;;;;;;20.80;20.80;;;;;;;;5048025;28;8875;-81
2023/06/11 06:58:33;;;;;;;;;17.80;17.80;;;;;;;;5047670;28;8863;-82
2023/06/11 07:01:01;;;;;;;;;17.00;17.00;;;;;;;;5038241;28;8788;-81
2023/06/11 07:03:28;;;;;;;;;19.60;19.60;;;;;;;;5046677;28;8959;-81
2023/06/11 07:05:55;;;;;;;;;23.20;22.60;;;;;;;;5044954;28;8851;-81
2023/06/11 07:08:23;;;;;;;;;21.40;20.80;;;;;;;;5048075;28;8881;-82
2023/06/11 07:10:54;;;;;;;;;23.20;22.40;;;;;;;;5048220;28;8855;-82
2023/06/11 07:13:22;;;;;;;;;22.00;22.00;;;;;;;;5042510;28;8923;-81
2023/06/11 07:15:49;;;;;;;;;17.80;17.00;;;;;;;;5047613;28;8859;-80
2023/06/11 07:18:18;;;;;;;;;23.60;22.20;;;;;;;;5041397;28;9013;-81
2023/06/11 07:20:46;;;;;;;;;25.60;21.60;;;;;;;;5035362;28;8846;-81
2023/06/11 07:23:16;;;;;;;;;18.40;17.40;;;;;;;;5034157;28;8958;-82
2023/06/11 07:25:47;;;;;;;;;19.80;19.80;;;;;;;;5042915;28;9030;-82
2023/06/11 07:28:18;;;;;;;;;18.40;18.40;;;;;;;;5044857;28;8887;-80
2023/06/11 07:30:45;;;;;;;;;22.40;19.00;;;;;;;;5043149;28;8802;-82
2023/06/11 07:33:16;;;;;;;;;21.60;21.20;;;;;;;;5062679;28;8955;-81
2023/06/11 07:35:45;;;;;;;;;22.20;20.20;;;;;;;;5041592;28;8879;-82
2023/06/11 07:38:12;;;;;;;;;21.00;21.00;;;;;;;;5049204;28;8939;-83
2023/06/11 07:40:40;;;;;;;;;17.40;17.40;;;;;;;;5048551;28;8862;-83
2023/06/11 07:43:07;;;;;;;;;20.80;19.40;;;;;;;;5046548;28;8945;-81
2023/06/11 07:45:36;;;;;;;;;22.40;20.80;;;;;;;;5045077;28;8875;-81
2023/06/11 07:48:05;;;;;;;;;21.00;20.60;;;;;;;;5047134;28;9006;-82
2023/06/11 07:50:32;;;;;;;;;16.00;15.60;;;;;;;;5047646;28;8855;-81
2023/06/11 07:53:00;;;;;;;;;18.80;18.80;;;;;;;;5050149;28;8859;-83
2023/06/11 07:55:28;;;;;;;;;22.40;21.40;;;;;;;;5045007;28;8889;-83
2023/06/11 07:57:56;;;;;;;;;21.00;20.80;;;;;;;;5051403;28;8901;-82
2023/06/11 08:00:24;;;;;;;;;18.60;18.20;;;;;;;;5046482;28;8996;-82
2023/06/11 08:02:56;;;;;;;;;17.20;17.20;;;;;;;;5047144;28;8863;-81
2023/06/11 08:05:23;;;;;;;;;20.40;19.00;;;;;;;;5042350;28;8932;-82
2023/06/11 08:07:50;;;;;;;;;15.60;15.60;;;;;;;;5045738;28;8962;-81
2023/06/11 08:10:18;;;;;;;;;21.20;18.60;;;;;;;;5051200;28;9720;-82
2023/06/11 08:12:45;;;;;;;;;20.60;20.60;;;;;;;;5050015;28;8862;-83
2023/06/11 08:15:12;;;;;;;;;20.80;20.80;;;;;;;;5039687;28;8997;-81
2023/06/11 08:17:40;;;;;;;;;20.80;19.80;;;;;;;;5051097;28;8858;-81
2023/06/11 08:20:09;;;;;;;;;18.40;18.40;;;;;;;;5051356;28;9684;-81
2023/06/11 08:22:41;;;;;;;;;18.80;18.40;;;;;;;;5050525;28;8871;-81
2023/06/11 08:25:09;;;;;;;;;18.20;18.20;;;;;;;;5041174;28;9206;-82
2023/06/11 08:27:37;;;;;;;;;17.80;16.80;;;;;;;;5046205;28;8862;-82
2023/06/11 08:30:05;;;;;;;;;19.40;18.60;;;;;;;;5050407;28;8955;-82
2023/06/11 08:32:32;;;;;;;;;17.60;17.60;;;;;;;;5050672;28;9712;-82
2023/06/11 08:34:59;;;;;;;;;15.20;15.20;;;;;;;;5050294;28;9009;-81
2023/06/11 08:37:29;;;;;;;;;20.80;17.80;;;;;;;;5050306;28;8890;-82
2023/06/11 08:39:59;;;;;;;;;17.60;16.00;;;;;;;;5051027;28;8862;-82
2023/06/11 08:42:26;;;;;;;;;18.60;18.60;;;;;;;;5050556;28;9014;-81
2023/06/11 08:44:56;;;;;;;;;18.00;17.80;;;;;;;;5051368;28;8873;-82
2023/06/11 08:47:28;;;;;;;;;20.40;18.60;;;;;;;;5049012;28;8992;-82
2023/06/11 08:49:56;;;;;;;;;15.00;15.00;;;;;;;;5050219;28;8859;-81
2023/06/11 08:52:25;;;;;;;;;16.00;16.00;;;;;;;;5048901;28;8966;-82
2023/06/11 08:54:54;;;;;;;;;18.00;16.40;;;;;;;;5050773;28;8878;-82
2023/06/11 08:57:22;;;;;;;;;15.80;15.80;;;;;;;;5050369;28;8993;-82
2023/06/11 08:59:55;;;;;;;;;17.80;17.80;;;;;;;;5050351;28;8977;-82
2023/06/11 09:02:25;;;;;;;;;16.40;16.40;;;;;;;;5039209;28;8803;-82
2023/06/11 09:04:53;;;;;;;;;17.20;17.20;;;;;;;;5046112;28;9615;-82
2023/06/11 09:07:26;;;;;;;;;20.40;19.20;;;;;;;;5043263;28;8855;-82
2023/06/11 09:10:06;;;;;;;;;17.00;15.00;;;;;;;;5052579;28;8963;-81
2023/06/11 09:12:33;;;;;;;;;11.80;11.80;;;;;;;;5045276;28;8978;-81
2023/06/11 09:15:01;;;;;;;;;14.60;14.60;;;;;;;;5049385;28;8862;-83
2023/06/11 09:17:35;;;;;;;;;16.20;16.00;;;;;;;;5040221;28;9008;-83
2023/06/11 09:20:06;;;;;;;;;15.60;15.60;;;;;;;;5041981;28;8855;-82
2023/06/11 09:22:34;;;;;;;;;16.60;15.60;;;;;;;;5031128;28;8869;-82
2023/06/11 09:25:06;;;;;;;;;15.00;13.20;;;;;;;;5050212;28;8859;-83
2023/06/11 09:27:34;;;;;;;;;15.20;15.20;;;;;;;;5033917;28;8874;-83
2023/06/11 09:30:10;;;;;;;;;14.80;14.80;;;;;;;;5038965;28;8858;-83
2023/06/11 09:32:40;;;;;;;;;17.00;17.00;;;;;;;;5032419;28;8806;-83
2023/06/11 09:35:09;;;;;;;;;17.20;17.20;;;;;;;;5041243;28;8871;-82
2023/06/11 09:37:44;;;;;;;;;17.00;17.00;;;;;;;;5049372;28;9610;-82
2023/06/11 09:40:17;;;;;;;;;14.20;14.20;;;;;;;;5049667;28;8867;-84
2023/06/11 09:42:45;;;;;;;;;14.00;14.00;;;;;;;;5049623;28;8956;-82
2023/06/11 09:45:16;;;;;;;;;21.60;18.60;;;;;;;;5048695;28;8863;-82
2023/06/11 09:47:44;;;;;;;;;19.60;18.80;;;;;;;;5041989;28;8851;-82
2023/06/11 09:50:13;;;;;;;;;17.60;17.60;;;;;;;;5050219;28;8936;-82
2023/06/11 09:52:42;;;;;;;;;20.20;17.80;;;;;;;;5049883;28;8901;-82
2023/06/11 09:55:10;;;;;;;;;18.00;18.00;;;;;;;;5048998;28;8855;-82
2023/06/11 09:57:40;;;;;;;;;21.00;19.20;;;;;;;;5049258;28;8909;-82
2023/06/11 10:00:09;;;;;;;;;20.40;20.40;;;;;;;;5047814;28;8936;-82
2023/06/11 10:02:38;;;;;;;;;20.20;18.60;;;;;;;;5049000;28;8870;-83
2023/06/11 10:05:06;;;;;;;;;16.80;16.80;;;;;;;;5048251;28;8839;-82
2023/06/11 10:07:38;;;;;;;;;16.40;16.40;;;;;;;;5035905;28;9017;-82
2023/06/11 10:10:07;;;;;;;;;19.80;19.80;;;;;;;;5049034;28;8932;-82
2023/06/11 10:12:34;;;;;;;;;18.60;17.20;;;;;;;;5049050;28;8867;-82
2023/06/11 10:15:04;;;;;;;;;15.00;15.00;;;;;;;;5048326;28;9023;-82
2023/06/11 10:17:32;;;;;;;;;19.80;19.80;;;;;;;;5043321;28;8874;-82
2023/06/11 10:20:01;;;;;;;;;19.20;15.80;;;;;;;;5044213;28;8843;-82
2023/06/11 10:22:35;;;;;;;;;15.00;15.00;;;;;;;;5048702;28;8863;-82
2023/06/11 10:25:03;;;;;;;;;17.80;15.80;;;;;;;;5048859;28;8859;-83
2023/06/11 10:27:38;;;;;;;;;17.60;17.60;;;;;;;;5048403;28;8879;-81
2023/06/11 10:30:08;;;;;;;;;16.80;16.80;;;;;;;;5048505;28;8847;-81
2023/06/11 10:32:47;;;;;;;;;16.60;16.60;;;;;;;;5048328;28;8885;-82
2023/06/11 10:35:22;;;;;;;;;17.20;17.20;;;;;;;;5041932;28;8925;-82
2023/06/11 10:37:49;;;;;;;;;12.20;12.20;;;;;;;;5043000;28;8889;-81
2023/06/11 10:40:18;;;;;;;;;14.40;14.40;;;;;;;;5049449;28;9718;-81
2023/06/11 10:42:46;;;;;;;;;13.20;13.20;;;;;;;;5050649;28;8982;-82
2023/06/11 10:45:15;;;;;;;;;16.00;14.40;;;;;;;;5050739;28;8985;-82
2023/06/11 10:47:44;;;;;;;;;13.60;13.60;;;;;;;;5051057;28;8854;-81
2023/06/11 10:50:13;;;;;;;;;16.00;14.00;;;;;;;;5050393;28;8871;-81
2023/06/11 10:52:51;;;;;;;;;14.60;14.60;;;;;;;;5049236;28;8865;-81
2023/06/11 10:55:20;;;;;;;;;16.00;15.60;;;;;;;;5034605;28;8857;-83
2023/06/11 10:57:48;;;;;;;;;16.00;16.00;;;;;;;;5037778;28;8863;-83
2023/06/11 11:00:17;;;;;;;;;14.00;12.40;;;;;;;;5045627;28;8855;-83
2023/06/11 11:02:45;;;;;;;;;14.40;14.40;;;;;;;;5046789;28;8851;-83
2023/06/11 11:05:12;;;;;;;;;15.00;15.00;;;;;;;;5047043;28;8862;-83
2023/06/11 11:07:44;;;;;;;;;12.60;12.60;;;;;;;;5047596;28;8934;-83
2023/06/11 11:10:12;;;;;;;;;12.60;12.60;;;;;;;;5035160;28;8870;-83
2023/06/11 11:12:41;;;;;;;;;14.00;13.20;;;;;;;;5048391;28;8851;-82
2023/06/11 11:15:10;;;;;;;;;16.60;14.20;;;;;;;;5047503;28;8835;-83
2023/06/11 11:17:41;;;;;;;;;13.00;13.00;;;;;;;;5047606;28;8871;-82
2023/06/11 11:20:10;;;;;;;;;14.00;14.00;;;;;;;;5047050;28;8855;-83
2023/06/11 11:22:37;;;;;;;;;15.60;15.60;;;;;;;;5036464;28;8936;-83
2023/06/11 11:25:08;;;;;;;;;15.60;15.60;;;;;;;;5047967;28;8981;-83
2023/06/11 11:27:37;;;;;;;;;16.60;15.20;;;;;;;;5047541;28;9645;-83
2023/06/11 11:30:06;;;;;;;;;13.00;13.00;;;;;;;;5036293;28;8855;-83
2023/06/11 11:32:36;;;;;;;;;10.60;10.60;;;;;;;;5047350;28;8854;-82
2023/06/11 11:35:06;;;;;;;;;12.00;12.00;;;;;;;;5039102;28;8885;-82
2023/06/11 11:37:35;;;;;;;;;12.20;9.80;;;;;;;;5044690;28;9428;-82
2023/06/11 11:40:06;;;;;;;;;10.60;9.60;;;;;;;;5038242;28;8889;-82
2023/06/11 11:42:35;;;;;;;;;10.00;10.00;;;;;;;;5045851;28;9644;-82
2023/06/11 11:45:03;;;;;;;;;11.40;11.40;;;;;;;;5036898;28;8864;-83
2023/06/11 11:47:30;;;;;;;;;11.40;10.40;;;;;;;;5032891;28;8944;-82
2023/06/11 11:49:58;;;;;;;;;9.40;8.40;;;;;;;;5043468;28;8896;-82
2023/06/11 11:52:29;;;;;;;;;7.80;7.80;;;;;;;;5047094;28;8881;-83
2023/06/11 11:54:57;;;;;;;;;10.60;10.60;;;;;;;;5047774;28;8870;-82
2023/06/11 11:57:25;;;;;;;;;9.40;9.40;;;;;;;;5047358;28;8855;-82
2023/06/11 11:59:55;;;;;;;;;11.20;11.20;;;;;;;;5047429;28;8901;-82
2023/06/11 12:02:27;;;;;;;;;9.40;9.40;;;;;;;;5035166;28;8937;-83
2023/06/11 12:04:59;;;;;;;;;7.40;7.00;;;;;;;;5045729;28;8903;-82
2023/06/11 12:07:28;;;;;;;;;9.00;9.00;;;;;;;;5047752;28;8878;-82
2023/06/11 12:09:55;;;;;;;;;9.80;9.80;;;;;;;;5046150;28;8847;-82
2023/06/11 12:12:22;;;;;;;;;7.60;7.00;;;;;;;;5047140;28;8863;-82
2023/06/11 12:14:50;;;;;;;;;8.40;8.40;;;;;;;;5047854;28;8855;-82
2023/06/11 12:17:19;;;;;;;;;12.60;10.40;;;;;;;;5049282;28;8855;-82
2023/06/11 12:19:47;;;;;;;;;10.80;10.80;;;;;;;;5049413;28;8847;-82
2023/06/11 12:22:14;;;;;;;;;11.00;11.00;;;;;;;;5049156;28;8933;-82
2023/06/11 12:24:43;;;;;;;;;10.40;10.40;;;;;;;;5051019;28;8847;-82
2023/06/11 12:27:11;;;;;;;;;13.20;10.80;;;;;;;;5050156;28;8863;-82
2023/06/11 12:29:38;;;;;;;;;8.40;8.40;;;;;;;;5040192;28;8870;-82
2023/06/11 12:32:12;;;;;;;;;10.00;10.00;;;;;;;;5047515;28;8796;-82
2023/06/11 12:34:40;;;;;;;;;13.80;13.80;;;;;;;;5045474;28;8932;-82
2023/06/11 12:37:08;;;;;;;;;9.60;9.60;;;;;;;;5046849;28;8901;-82
2023/06/11 12:39:36;;;;;;;;;9.80;9.80;;;;;;;;5044569;28;8867;-81
2023/06/11 12:42:06;;;;;;;;;9.40;9.40;;;;;;;;5050652;28;8871;-80
2023/06/11 12:44:34;;;;;;;;;11.40;10.00;;;;;;;;5048984;28;8875;-81
2023/06/11 12:47:02;;;;;;;;;11.80;10.80;;;;;;;;5045869;28;8859;-80
2023/06/11 12:49:31;;;;;;;;;8.00;8.00;;;;;;;;5050384;28;8958;-81
2023/06/11 12:51:59;;;;;;;;;11.80;11.80;;;;;;;;5050651;28;8879;-82
2023/06/11 12:54:27;;;;;;;;;9.80;8.20;;;;;;;;5050379;28;8872;-82
2023/06/11 12:56:57;;;;;;;;;9.00;9.00;;;;;;;;5050434;28;8904;-82
2023/06/11 12:59:26;;;;;;;;;10.00;10.00;;;;;;;;5049927;28;8896;-83
2023/06/11 13:01:54;;;;;;;;;9.20;9.20;;;;;;;;5049906;28;8835;-87
2023/06/11 13:04:21;;;;;;;;;10.00;10.00;;;;;;;;5046354;28;8942;-89
2023/06/11 13:06:53;;;;;;;;;10.60;9.00;;;;;;;;5036890;28;8966;-89
2023/06/11 13:09:20;;;;;;;;;10.00;10.00;;;;;;;;5050616;28;8855;-89
2023/06/11 13:11:53;;;;;;;;;10.00;10.00;;;;;;;;5049054;28;8862;-88
2023/06/11 13:14:21;;;;;;;;;9.40;9.20;;;;;;;;5051809;28;8978;-89
2023/06/11 13:16:55;;;;;;;;;11.40;10.00;;;;;;;;5053305;28;8859;-88
2023/06/11 13:19:32;;;;;;;;;12.60;11.80;;;;;;;;5056111;28;8878;-88
2023/06/11 13:22:01;;;;;;;;;11.80;11.80;;;;;;;;5051817;28;8867;-86
2023/06/11 13:24:32;;;;;;;;;11.00;11.00;;;;;;;;5047452;28;8872;-86
2023/06/11 13:27:04;;;;;;;;;10.00;10.00;;;;;;;;5051078;28;8883;-88
2023/06/11 13:29:31;;;;;;;;;11.00;11.00;;;;;;;;5048338;28;8855;-87
2023/06/11 13:32:00;;;;;;;;;17.80;17.80;;;;;;;;5049800;28;8796;-88
2023/06/11 13:34:27;;;;;;;;;19.40;17.60;;;;;;;;5048462;28;8924;-85
2023/06/11 13:36:56;;;;;;;;;21.60;21.60;;;;;;;;5046680;28;9792;-86
2023/06/11 13:39:23;;;;;;;;;19.20;18.80;;;;;;;;5050189;28;9005;-85
2023/06/11 13:41:52;;;;;;;;;22.80;21.00;;;;;;;;5050457;28;8851;-85
2023/06/11 13:44:19;;;;;;;;;15.60;15.60;;;;;;;;5046530;28;8873;-84
2023/06/11 13:46:47;;;;;;;;;14.00;12.20;;;;;;;;5054164;28;8858;-85
2023/06/11 13:49:16;;;;;;;;;13.60;13.60;;;;;;;;5046885;28;8883;-85
2023/06/11 13:51:46;;;;;;;;;12.20;11.00;;;;;;;;5050599;28;8855;-86
2023/06/11 13:54:14;;;;;;;;;12.60;11.00;;;;;;;;5051326;28;8924;-85
2023/06/11 13:56:42;;;;;;;;;11.40;11.40;;;;;;;;5039076;28;8850;-85
2023/06/11 13:59:09;;;;;;;;;11.20;11.00;;;;;;;;5045140;28;8853;-84
2023/06/11 14:01:39;;;;;;;;;11.00;11.00;;;;;;;;5031860;28;8775;-85
2023/06/11 14:04:07;;;;;;;;;16.00;16.00;;;;;;;;5044122;28;8936;-85
2023/06/11 14:06:36;;;;;;;;;15.40;14.20;;;;;;;;5041204;28;8875;-84
2023/06/11 14:09:04;;;;;;;;;12.60;12.60;;;;;;;;5040602;28;8863;-85
2023/06/11 14:11:34;;;;;;;;;14.00;12.60;;;;;;;;5046655;28;8889;-85
2023/06/11 14:14:01;;;;;;;;;12.40;11.00;;;;;;;;5047879;28;8874;-85
2023/06/11 14:16:29;;;;;;;;;13.00;13.00;;;;;;;;5047448;28;8897;-86
2023/06/11 14:18:56;;;;;;;;;12.20;12.20;;;;;;;;5049843;28;8949;-87
2023/06/11 14:21:24;;;;;;;;;14.80;14.80;;;;;;;;5050151;28;8893;-87
2023/06/11 14:23:53;;;;;;;;;17.80;17.80;;;;;;;;5050279;28;8847;-87
2023/06/11 14:26:20;;;;;;;;;23.20;19.00;;;;;;;;5046825;28;8871;-87
2023/06/11 14:28:50;;;;;;;;;19.60;19.00;;;;;;;;5044609;28;8954;-86
2023/06/11 14:31:20;;;;;;;;;19.40;16.40;;;;;;;;5047963;28;8815;-86
2023/06/11 14:33:48;;;;;;;;;14.40;13.80;;;;;;;;5048637;28;8839;-85
2023/06/11 14:36:19;;;;;;;;;18.20;17.20;;;;;;;;5046589;28;8875;-84
2023/06/11 14:38:48;;;;;;;;;18.40;18.40;;;;;;;;5046856;28;8968;-84
2023/06/11 14:41:17;;;;;;;;;13.40;13.40;;;;;;;;5049952;28;8879;-87